Maldives Meteorological Service

SYNOP

Station Code SYNOP
43555
AAXX 23004 43555 12465 72307 10282 20245 30093 40095 60012 82202 333 59009 70001 82818 87077=
43533
AAXX 23004 43533 12462 52710 10282 20255 30087 40089 69902 82232 333 59005 70002 82818 83077=
43577
AAXX 23004 43577 12465 49901 10264 20239 30094 40096 60002 81202 333 59015 70000 81819 84077=
43588
AAXX 23004 43588 12462 69901 10250 20241 30096 40097 60002 82232 333 59013 70008 82818 86077=
43599
AAXX 23004 43599 12462 42503 10265 20237 30095 40097 60002 82202 333 59013 79999 82818 85076=
Last Updated : 2018-06-23 05:02:33